sensor_id;sensor_type;location;lat;lon;timestamp;temperature;humidity
10306;DHT22;5198;52.382;9.020;2023-08-07T00:00:51;16.40;99.90
10306;DHT22;5198;52.382;9.020;2023-08-07T00:04:54;16.40;99.90
10306;DHT22;5198;52.382;9.020;2023-08-07T00:08:59;16.40;99.90
10306;DHT22;5198;52.382;9.020;2023-08-07T00:13:03;16.40;99.90
10306;DHT22;5198;52.382;9.020;2023-08-07T00:17:06;16.30;99.90
10306;DHT22;5198;52.382;9.020;2023-08-07T00:21:10;16.30;99.90
10306;DHT22;5198;52.382;9.020;2023-08-07T00:25:13;16.30;99.90
10306;DHT22;5198;52.382;9.020;2023-08-07T00:29:17;16.20;99.90
10306;DHT22;5198;52.382;9.020;2023-08-07T00:33:20;16.20;99.90
10306;DHT22;5198;52.382;9.020;2023-08-07T00:37:23;16.20;99.90
10306;DHT22;5198;52.382;9.020;2023-08-07T00:41:26;16.20;99.90
10306;DHT22;5198;52.382;9.020;2023-08-07T00:45:31;16.10;99.90
10306;DHT22;5198;52.382;9.020;2023-08-07T00:49:35;16.10;99.90
10306;DHT22;5198;52.382;9.020;2023-08-07T00:53:38;16.10;99.90
10306;DHT22;5198;52.382;9.020;2023-08-07T00:57:41;16.10;99.90
10306;DHT22;5198;52.382;9.020;2023-08-07T01:01:46;16.10;99.90
10306;DHT22;5198;52.382;9.020;2023-08-07T01:05:49;16.00;99.90
10306;DHT22;5198;52.382;9.020;2023-08-07T01:09:52;16.00;99.90
10306;DHT22;5198;52.382;9.020;2023-08-07T01:13:56;16.10;99.90
10306;DHT22;5198;52.382;9.020;2023-08-07T01:18:03;16.00;99.90
10306;DHT22;5198;52.382;9.020;2023-08-07T01:22:09;16.00;99.90
10306;DHT22;5198;52.382;9.020;2023-08-07T01:26:12;16.00;99.90
10306;DHT22;5198;52.382;9.020;2023-08-07T01:30:17;16.00;99.90
10306;DHT22;5198;52.382;9.020;2023-08-07T01:34:22;16.00;99.90
10306;DHT22;5198;52.382;9.020;2023-08-07T01:38:28;16.00;99.90
10306;DHT22;5198;52.382;9.020;2023-08-07T01:42:31;16.00;99.90
10306;DHT22;5198;52.382;9.020;2023-08-07T01:46:34;16.00;99.90
10306;DHT22;5198;52.382;9.020;2023-08-07T01:50:38;16.00;99.90
10306;DHT22;5198;52.382;9.020;2023-08-07T01:54:42;16.00;99.90
10306;DHT22;5198;52.382;9.020;2023-08-07T01:58:45;15.90;99.90
10306;DHT22;5198;52.382;9.020;2023-08-07T02:02:48;15.90;99.90
10306;DHT22;5198;52.382;9.020;2023-08-07T02:06:51;15.90;99.90
10306;DHT22;5198;52.382;9.020;2023-08-07T02:10:56;15.80;99.90
10306;DHT22;5198;52.382;9.020;2023-08-07T02:14:59;15.80;99.90
10306;DHT22;5198;52.382;9.020;2023-08-07T02:19:02;15.80;99.90
10306;DHT22;5198;52.382;9.020;2023-08-07T02:23:05;15.70;99.90
10306;DHT22;5198;52.382;9.020;2023-08-07T02:27:09;15.80;99.90
10306;DHT22;5198;52.382;9.020;2023-08-07T02:31:12;15.70;99.90
10306;DHT22;5198;52.382;9.020;2023-08-07T02:35:15;15.70;99.90
10306;DHT22;5198;52.382;9.020;2023-08-07T02:39:18;15.70;99.90
10306;DHT22;5198;52.382;9.020;2023-08-07T02:43:22;15.70;99.90
10306;DHT22;5198;52.382;9.020;2023-08-07T02:47:25;15.70;99.90
10306;DHT22;5198;52.382;9.020;2023-08-07T02:51:28;15.70;99.90
10306;DHT22;5198;52.382;9.020;2023-08-07T02:55:31;15.70;99.90
10306;DHT22;5198;52.382;9.020;2023-08-07T02:59:35;15.60;99.90
10306;DHT22;5198;52.382;9.020;2023-08-07T03:03:38;15.60;99.90
10306;DHT22;5198;52.382;9.020;2023-08-07T03:07:41;15.60;99.90
10306;DHT22;5198;52.382;9.020;2023-08-07T03:11:44;15.60;99.90
10306;DHT22;5198;52.382;9.020;2023-08-07T03:15:48;15.60;99.90
10306;DHT22;5198;52.382;9.020;2023-08-07T03:19:52;15.60;99.90
10306;DHT22;5198;52.382;9.020;2023-08-07T03:23:55;15.60;99.90
10306;DHT22;5198;52.382;9.020;2023-08-07T03:27:57;15.60;99.90
10306;DHT22;5198;52.382;9.020;2023-08-07T03:32:02;15.60;99.90
10306;DHT22;5198;52.382;9.020;2023-08-07T03:36:05;15.60;99.90
10306;DHT22;5198;52.382;9.020;2023-08-07T03:40:08;15.60;99.90
10306;DHT22;5198;52.382;9.020;2023-08-07T03:44:11;15.60;99.90
10306;DHT22;5198;52.382;9.020;2023-08-07T03:48:15;15.60;99.90
10306;DHT22;5198;52.382;9.020;2023-08-07T03:52:18;15.60;99.90
10306;DHT22;5198;52.382;9.020;2023-08-07T03:56:21;15.60;99.90
10306;DHT22;5198;52.382;9.020;2023-08-07T04:00:24;15.60;99.90
10306;DHT22;5198;52.382;9.020;2023-08-07T04:04:28;15.60;99.90
10306;DHT22;5198;52.382;9.020;2023-08-07T04:08:32;15.60;99.90
10306;DHT22;5198;52.382;9.020;2023-08-07T04:12:35;15.60;99.90
10306;DHT22;5198;52.382;9.020;2023-08-07T04:16:44;15.60;99.90
10306;DHT22;5198;52.382;9.020;2023-08-07T04:20:49;15.60;99.90
10306;DHT22;5198;52.382;9.020;2023-08-07T04:24:54;15.60;99.90
10306;DHT22;5198;52.382;9.020;2023-08-07T04:28:57;15.60;99.90
10306;DHT22;5198;52.382;9.020;2023-08-07T04:33:00;15.70;99.90
10306;DHT22;5198;52.382;9.020;2023-08-07T04:41:28;15.70;99.90
10306;DHT22;5198;52.382;9.020;2023-08-07T04:45:31;15.70;99.90
10306;DHT22;5198;52.382;9.020;2023-08-07T04:49:36;15.70;99.90
10306;DHT22;5198;52.382;9.020;2023-08-07T04:53:39;15.70;99.90
10306;DHT22;5198;52.382;9.020;2023-08-07T04:57:43;15.70;99.90
10306;DHT22;5198;52.382;9.020;2023-08-07T05:01:48;15.80;99.90
10306;DHT22;5198;52.382;9.020;2023-08-07T05:05:51;15.80;99.90
10306;DHT22;5198;52.382;9.020;2023-08-07T05:10:01;15.80;99.90
10306;DHT22;5198;52.382;9.020;2023-08-07T05:14:05;15.90;99.90
10306;DHT22;5198;52.382;9.020;2023-08-07T05:18:08;15.90;99.90
10306;DHT22;5198;52.382;9.020;2023-08-07T05:22:11;15.90;99.90
10306;DHT22;5198;52.382;9.020;2023-08-07T05:26:14;16.00;99.90
10306;DHT22;5198;52.382;9.020;2023-08-07T05:30:23;16.00;99.90
10306;DHT22;5198;52.382;9.020;2023-08-07T05:34:26;16.10;99.90
10306;DHT22;5198;52.382;9.020;2023-08-07T05:38:29;16.00;99.90
10306;DHT22;5198;52.382;9.020;2023-08-07T05:42:32;16.10;99.90
10306;DHT22;5198;52.382;9.020;2023-08-07T05:46:37;16.10;99.90
10306;DHT22;5198;52.382;9.020;2023-08-07T05:50:42;16.20;99.90
10306;DHT22;5198;52.382;9.020;2023-08-07T05:54:45;16.20;99.90
10306;DHT22;5198;52.382;9.020;2023-08-07T05:58:49;16.20;99.90
10306;DHT22;5198;52.382;9.020;2023-08-07T06:02:53;16.30;99.90
10306;DHT22;5198;52.382;9.020;2023-08-07T06:06:56;16.30;99.90
10306;DHT22;5198;52.382;9.020;2023-08-07T06:10:59;16.30;99.90
10306;DHT22;5198;52.382;9.020;2023-08-07T06:15:05;16.30;99.90
10306;DHT22;5198;52.382;9.020;2023-08-07T06:19:09;16.30;99.90
10306;DHT22;5198;52.382;9.020;2023-08-07T06:23:30;16.30;99.90
10306;DHT22;5198;52.382;9.020;2023-08-07T06:27:33;16.30;99.90
10306;DHT22;5198;52.382;9.020;2023-08-07T06:31:35;16.40;99.90
10306;DHT22;5198;52.382;9.020;2023-08-07T06:35:40;16.40;99.90
10306;DHT22;5198;52.382;9.020;2023-08-07T06:39:47;16.40;99.90
10306;DHT22;5198;52.382;9.020;2023-08-07T06:43:50;16.50;99.90
10306;DHT22;5198;52.382;9.020;2023-08-07T06:47:53;16.50;99.90
10306;DHT22;5198;52.382;9.020;2023-08-07T06:51:57;16.50;99.90
10306;DHT22;5198;52.382;9.020;2023-08-07T06:56:00;16.50;99.90
10306;DHT22;5198;52.382;9.020;2023-08-07T07:00:04;16.60;99.90
10306;DHT22;5198;52.382;9.020;2023-08-07T07:04:09;16.60;99.90
10306;DHT22;5198;52.382;9.020;2023-08-07T07:08:13;16.70;99.90
10306;DHT22;5198;52.382;9.020;2023-08-07T07:12:17;16.80;99.90
10306;DHT22;5198;52.382;9.020;2023-08-07T07:16:20;16.90;99.90
10306;DHT22;5198;52.382;9.020;2023-08-07T07:20:24;17.00;99.90
10306;DHT22;5198;52.382;9.020;2023-08-07T07:24:29;17.10;99.90
10306;DHT22;5198;52.382;9.020;2023-08-07T07:28:32;17.20;99.90
10306;DHT22;5198;52.382;9.020;2023-08-07T07:32:35;17.20;99.90
10306;DHT22;5198;52.382;9.020;2023-08-07T07:36:38;17.20;99.90
10306;DHT22;5198;52.382;9.020;2023-08-07T07:40:43;17.30;99.90
10306;DHT22;5198;52.382;9.020;2023-08-07T07:44:47;17.30;99.90
10306;DHT22;5198;52.382;9.020;2023-08-07T07:48:50;17.30;99.90
10306;DHT22;5198;52.382;9.020;2023-08-07T07:53:02;17.30;99.90
10306;DHT22;5198;52.382;9.020;2023-08-07T07:57:06;17.30;99.90
10306;DHT22;5198;52.382;9.020;2023-08-07T08:01:09;17.40;99.90
10306;DHT22;5198;52.382;9.020;2023-08-07T08:05:12;17.40;99.90
10306;DHT22;5198;52.382;9.020;2023-08-07T08:09:35;17.50;99.90
10306;DHT22;5198;52.382;9.020;2023-08-07T08:13:40;17.60;99.90
10306;DHT22;5198;52.382;9.020;2023-08-07T08:17:42;17.60;99.90
10306;DHT22;5198;52.382;9.020;2023-08-07T08:21:51;17.70;99.90
10306;DHT22;5198;52.382;9.020;2023-08-07T08:25:54;17.70;99.90
10306;DHT22;5198;52.382;9.020;2023-08-07T08:29:58;17.70;99.90
10306;DHT22;5198;52.382;9.020;2023-08-07T08:34:01;17.70;99.90
10306;DHT22;5198;52.382;9.020;2023-08-07T08:38:06;17.70;99.90
10306;DHT22;5198;52.382;9.020;2023-08-07T08:42:11;17.60;99.90
10306;DHT22;5198;52.382;9.020;2023-08-07T08:46:15;17.60;99.90
10306;DHT22;5198;52.382;9.020;2023-08-07T08:50:19;17.70;99.90
10306;DHT22;5198;52.382;9.020;2023-08-07T08:54:40;17.80;99.90
10306;DHT22;5198;52.382;9.020;2023-08-07T08:58:43;17.80;99.90
10306;DHT22;5198;52.382;9.020;2023-08-07T09:02:48;17.90;99.90
10306;DHT22;5198;52.382;9.020;2023-08-07T09:06:51;18.00;99.90
10306;DHT22;5198;52.382;9.020;2023-08-07T09:10:59;18.10;99.90
10306;DHT22;5198;52.382;9.020;2023-08-07T09:15:03;18.30;99.90
10306;DHT22;5198;52.382;9.020;2023-08-07T09:19:08;18.40;99.90
10306;DHT22;5198;52.382;9.020;2023-08-07T09:23:11;18.40;99.90
10306;DHT22;5198;52.382;9.020;2023-08-07T09:27:14;18.40;99.90
10306;DHT22;5198;52.382;9.020;2023-08-07T09:31:17;18.40;99.90
10306;DHT22;5198;52.382;9.020;2023-08-07T09:35:23;18.40;99.90
10306;DHT22;5198;52.382;9.020;2023-08-07T09:39:26;18.40;99.90
10306;DHT22;5198;52.382;9.020;2023-08-07T09:43:33;18.50;99.90
10306;DHT22;5198;52.382;9.020;2023-08-07T09:47:36;18.50;99.90
10306;DHT22;5198;52.382;9.020;2023-08-07T09:51:44;18.50;99.90
10306;DHT22;5198;52.382;9.020;2023-08-07T10:00:01;18.70;99.90
10306;DHT22;5198;52.382;9.020;2023-08-07T10:04:04;18.60;99.90
10306;DHT22;5198;52.382;9.020;2023-08-07T10:08:09;18.60;99.90
10306;DHT22;5198;52.382;9.020;2023-08-07T10:12:13;18.40;99.90
10306;DHT22;5198;52.382;9.020;2023-08-07T10:16:25;18.20;99.90
10306;DHT22;5198;52.382;9.020;2023-08-07T10:20:29;18.20;99.90
10306;DHT22;5198;52.382;9.020;2023-08-07T10:24:33;18.10;99.90
10306;DHT22;5198;52.382;9.020;2023-08-07T10:28:37;18.10;99.90
10306;DHT22;5198;52.382;9.020;2023-08-07T10:32:42;18.30;99.90
10306;DHT22;5198;52.382;9.020;2023-08-07T10:36:45;18.50;99.90
10306;DHT22;5198;52.382;9.020;2023-08-07T10:40:59;18.70;99.90
10306;DHT22;5198;52.382;9.020;2023-08-07T10:45:03;18.90;99.90
10306;DHT22;5198;52.382;9.020;2023-08-07T10:49:08;18.90;99.90
10306;DHT22;5198;52.382;9.020;2023-08-07T10:53:11;19.10;99.90
10306;DHT22;5198;52.382;9.020;2023-08-07T10:57:22;19.30;99.90
10306;DHT22;5198;52.382;9.020;2023-08-07T11:01:28;19.40;99.90
10306;DHT22;5198;52.382;9.020;2023-08-07T11:05:40;19.50;99.90
10306;DHT22;5198;52.382;9.020;2023-08-07T11:09:43;19.50;99.90
10306;DHT22;5198;52.382;9.020;2023-08-07T11:13:47;19.40;99.90
10306;DHT22;5198;52.382;9.020;2023-08-07T11:17:50;19.20;99.90
10306;DHT22;5198;52.382;9.020;2023-08-07T11:21:53;19.10;99.90
10306;DHT22;5198;52.382;9.020;2023-08-07T11:26:01;19.00;99.90
10306;DHT22;5198;52.382;9.020;2023-08-07T11:30:07;19.00;99.90
10306;DHT22;5198;52.382;9.020;2023-08-07T11:34:13;19.00;99.90
10306;DHT22;5198;52.382;9.020;2023-08-07T11:38:28;19.20;99.90
10306;DHT22;5198;52.382;9.020;2023-08-07T11:42:33;19.40;99.90
10306;DHT22;5198;52.382;9.020;2023-08-07T11:46:37;19.60;99.90
10306;DHT22;5198;52.382;9.020;2023-08-07T11:50:40;19.90;99.90
10306;DHT22;5198;52.382;9.020;2023-08-07T11:54:46;20.00;99.90
10306;DHT22;5198;52.382;9.020;2023-08-07T11:58:50;20.00;99.90
10306;DHT22;5198;52.382;9.020;2023-08-07T12:02:55;19.90;99.90
10306;DHT22;5198;52.382;9.020;2023-08-07T12:06:58;19.60;99.90
10306;DHT22;5198;52.382;9.020;2023-08-07T12:11:02;19.40;99.90
10306;DHT22;5198;52.382;9.020;2023-08-07T12:15:06;19.10;99.90
10306;DHT22;5198;52.382;9.020;2023-08-07T12:19:11;18.90;99.90
10306;DHT22;5198;52.382;9.020;2023-08-07T12:23:14;18.80;99.90
10306;DHT22;5198;52.382;9.020;2023-08-07T12:27:19;18.80;99.90
10306;DHT22;5198;52.382;9.020;2023-08-07T12:31:21;18.90;99.90
10306;DHT22;5198;52.382;9.020;2023-08-07T12:35:26;19.10;99.90
10306;DHT22;5198;52.382;9.020;2023-08-07T12:39:29;19.30;99.90
10306;DHT22;5198;52.382;9.020;2023-08-07T12:43:34;19.40;99.90
10306;DHT22;5198;52.382;9.020;2023-08-07T12:47:38;19.50;99.90
10306;DHT22;5198;52.382;9.020;2023-08-07T12:51:42;19.50;99.90
10306;DHT22;5198;52.382;9.020;2023-08-07T12:55:45;19.70;99.90
10306;DHT22;5198;52.382;9.020;2023-08-07T12:59:48;19.80;99.90
10306;DHT22;5198;52.382;9.020;2023-08-07T13:03:51;20.00;99.90
10306;DHT22;5198;52.382;9.020;2023-08-07T13:07:56;20.20;99.90
10306;DHT22;5198;52.382;9.020;2023-08-07T13:12:00;20.40;99.90
10306;DHT22;5198;52.382;9.020;2023-08-07T13:16:03;20.50;99.90
10306;DHT22;5198;52.382;9.020;2023-08-07T13:20:06;20.50;99.90
10306;DHT22;5198;52.382;9.020;2023-08-07T13:24:11;20.50;99.90
10306;DHT22;5198;52.382;9.020;2023-08-07T13:28:15;20.40;99.90
10306;DHT22;5198;52.382;9.020;2023-08-07T13:32:19;20.40;99.90
10306;DHT22;5198;52.382;9.020;2023-08-07T13:36:22;20.40;99.90
10306;DHT22;5198;52.382;9.020;2023-08-07T13:40:27;20.30;99.90
10306;DHT22;5198;52.382;9.020;2023-08-07T13:44:30;20.20;99.90
10306;DHT22;5198;52.382;9.020;2023-08-07T13:48:35;20.00;99.90
10306;DHT22;5198;52.382;9.020;2023-08-07T13:52:39;19.80;99.90
10306;DHT22;5198;52.382;9.020;2023-08-07T13:56:44;19.70;99.90
10306;DHT22;5198;52.382;9.020;2023-08-07T14:00:47;19.70;99.90
10306;DHT22;5198;52.382;9.020;2023-08-07T14:04:50;19.60;99.90
10306;DHT22;5198;52.382;9.020;2023-08-07T14:08:53;19.60;99.90
10306;DHT22;5198;52.382;9.020;2023-08-07T14:12:57;19.70;99.90
10306;DHT22;5198;52.382;9.020;2023-08-07T14:17:00;19.70;99.90
10306;DHT22;5198;52.382;9.020;2023-08-07T14:21:03;19.80;99.90
10306;DHT22;5198;52.382;9.020;2023-08-07T14:25:08;19.70;99.90
10306;DHT22;5198;52.382;9.020;2023-08-07T14:29:13;19.60;99.90
10306;DHT22;5198;52.382;9.020;2023-08-07T14:33:20;19.60;99.90
10306;DHT22;5198;52.382;9.020;2023-08-07T14:37:23;19.60;99.90
10306;DHT22;5198;52.382;9.020;2023-08-07T14:41:27;19.70;99.90
10306;DHT22;5198;52.382;9.020;2023-08-07T14:45:32;19.90;99.90
10306;DHT22;5198;52.382;9.020;2023-08-07T14:49:35;20.00;99.90
10306;DHT22;5198;52.382;9.020;2023-08-07T14:53:38;20.20;99.90
10306;DHT22;5198;52.382;9.020;2023-08-07T14:57:41;20.30;99.90
10306;DHT22;5198;52.382;9.020;2023-08-07T15:01:45;20.30;99.90
10306;DHT22;5198;52.382;9.020;2023-08-07T15:05:48;20.20;99.90
10306;DHT22;5198;52.382;9.020;2023-08-07T15:09:51;20.10;99.90
10306;DHT22;5198;52.382;9.020;2023-08-07T15:13:54;19.90;99.90
10306;DHT22;5198;52.382;9.020;2023-08-07T15:17:58;19.70;99.90
10306;DHT22;5198;52.382;9.020;2023-08-07T15:22:03;19.60;99.90
10306;DHT22;5198;52.382;9.020;2023-08-07T15:26:06;19.50;99.90
10306;DHT22;5198;52.382;9.020;2023-08-07T15:30:11;19.50;99.90
10306;DHT22;5198;52.382;9.020;2023-08-07T15:34:16;19.60;99.90
10306;DHT22;5198;52.382;9.020;2023-08-07T15:38:19;19.60;99.90
10306;DHT22;5198;52.382;9.020;2023-08-07T15:42:22;19.60;99.90
10306;DHT22;5198;52.382;9.020;2023-08-07T15:46:24;19.60;99.90
10306;DHT22;5198;52.382;9.020;2023-08-07T15:50:29;19.60;99.90
10306;DHT22;5198;52.382;9.020;2023-08-07T15:54:37;19.60;99.90
10306;DHT22;5198;52.382;9.020;2023-08-07T15:58:40;19.60;99.90
10306;DHT22;5198;52.382;9.020;2023-08-07T16:02:43;19.70;99.90
10306;DHT22;5198;52.382;9.020;2023-08-07T16:06:48;19.80;99.90
10306;DHT22;5198;52.382;9.020;2023-08-07T16:14:57;19.80;99.90
10306;DHT22;5198;52.382;9.020;2023-08-07T16:19:04;19.90;99.90
10306;DHT22;5198;52.382;9.020;2023-08-07T16:23:08;19.90;99.90
10306;DHT22;5198;52.382;9.020;2023-08-07T16:27:12;19.90;99.90
10306;DHT22;5198;52.382;9.020;2023-08-07T16:31:17;19.70;99.90
10306;DHT22;5198;52.382;9.020;2023-08-07T16:35:20;19.40;99.90
10306;DHT22;5198;52.382;9.020;2023-08-07T16:39:25;19.30;99.90
10306;DHT22;5198;52.382;9.020;2023-08-07T16:43:28;19.10;99.90
10306;DHT22;5198;52.382;9.020;2023-08-07T16:47:33;19.00;99.90
10306;DHT22;5198;52.382;9.020;2023-08-07T16:51:37;18.90;99.90
10306;DHT22;5198;52.382;9.020;2023-08-07T16:55:41;18.90;99.90
10306;DHT22;5198;52.382;9.020;2023-08-07T16:59:44;18.80;99.90
10306;DHT22;5198;52.382;9.020;2023-08-07T17:03:48;18.80;99.90
10306;DHT22;5198;52.382;9.020;2023-08-07T17:07:51;18.70;99.90
10306;DHT22;5198;52.382;9.020;2023-08-07T17:11:55;18.60;99.90
10306;DHT22;5198;52.382;9.020;2023-08-07T17:15:58;18.60;99.90
10306;DHT22;5198;52.382;9.020;2023-08-07T17:20:03;18.50;99.90
10306;DHT22;5198;52.382;9.020;2023-08-07T17:24:06;18.40;99.90
10306;DHT22;5198;52.382;9.020;2023-08-07T17:28:11;18.40;99.90
10306;DHT22;5198;52.382;9.020;2023-08-07T17:32:14;18.30;99.90
10306;DHT22;5198;52.382;9.020;2023-08-07T17:36:17;18.30;99.90
10306;DHT22;5198;52.382;9.020;2023-08-07T17:40:20;18.20;99.90
10306;DHT22;5198;52.382;9.020;2023-08-07T17:44:24;18.10;99.90
10306;DHT22;5198;52.382;9.020;2023-08-07T17:48:27;18.00;99.90
10306;DHT22;5198;52.382;9.020;2023-08-07T17:52:30;18.00;99.90
10306;DHT22;5198;52.382;9.020;2023-08-07T17:56:34;17.90;99.90
10306;DHT22;5198;52.382;9.020;2023-08-07T18:00:39;17.80;99.90
10306;DHT22;5198;52.382;9.020;2023-08-07T18:04:42;17.80;99.90
10306;DHT22;5198;52.382;9.020;2023-08-07T18:08:46;17.70;99.90
10306;DHT22;5198;52.382;9.020;2023-08-07T18:12:49;17.60;99.90
10306;DHT22;5198;52.382;9.020;2023-08-07T18:16:53;17.40;99.90
10306;DHT22;5198;52.382;9.020;2023-08-07T18:20:56;17.50;99.90
10306;DHT22;5198;52.382;9.020;2023-08-07T18:25:00;17.40;99.90
10306;DHT22;5198;52.382;9.020;2023-08-07T18:29:03;17.40;99.90
10306;DHT22;5198;52.382;9.020;2023-08-07T18:33:08;17.30;99.90
10306;DHT22;5198;52.382;9.020;2023-08-07T18:37:11;17.20;99.90
10306;DHT22;5198;52.382;9.020;2023-08-07T18:45:17;17.10;99.90
10306;DHT22;5198;52.382;9.020;2023-08-07T18:49:22;17.00;99.90
10306;DHT22;5198;52.382;9.020;2023-08-07T18:53:25;16.90;99.90
10306;DHT22;5198;52.382;9.020;2023-08-07T18:57:27;16.80;99.90
10306;DHT22;5198;52.382;9.020;2023-08-07T19:01:30;16.70;99.90
10306;DHT22;5198;52.382;9.020;2023-08-07T19:05:35;16.60;99.90
10306;DHT22;5198;52.382;9.020;2023-08-07T19:09:38;16.50;99.90
10306;DHT22;5198;52.382;9.020;2023-08-07T19:13:41;16.40;99.90
10306;DHT22;5198;52.382;9.020;2023-08-07T19:17:44;16.30;99.90
10306;DHT22;5198;52.382;9.020;2023-08-07T19:21:48;16.30;99.90
10306;DHT22;5198;52.382;9.020;2023-08-07T19:25:51;16.20;99.90
10306;DHT22;5198;52.382;9.020;2023-08-07T19:29:54;16.20;99.90
10306;DHT22;5198;52.382;9.020;2023-08-07T19:33:57;16.10;99.90
10306;DHT22;5198;52.382;9.020;2023-08-07T19:38:01;16.10;99.90
10306;DHT22;5198;52.382;9.020;2023-08-07T19:42:04;16.00;99.90
10306;DHT22;5198;52.382;9.020;2023-08-07T19:46:07;15.90;99.90
10306;DHT22;5198;52.382;9.020;2023-08-07T19:50:10;15.90;99.90
10306;DHT22;5198;52.382;9.020;2023-08-07T19:54:15;15.70;99.90
10306;DHT22;5198;52.382;9.020;2023-08-07T19:58:18;15.70;99.90
10306;DHT22;5198;52.382;9.020;2023-08-07T20:02:22;15.60;99.90
10306;DHT22;5198;52.382;9.020;2023-08-07T20:06:25;15.50;99.90
10306;DHT22;5198;52.382;9.020;2023-08-07T20:10:31;15.50;99.90
10306;DHT22;5198;52.382;9.020;2023-08-07T20:23:24;15.30;99.90
10306;DHT22;5198;52.382;9.020;2023-08-07T20:27:31;15.20;99.90
10306;DHT22;5198;52.382;9.020;2023-08-07T20:31:34;15.20;99.90
10306;DHT22;5198;52.382;9.020;2023-08-07T20:35:41;15.10;99.90
10306;DHT22;5198;52.382;9.020;2023-08-07T20:39:44;15.10;99.90
10306;DHT22;5198;52.382;9.020;2023-08-07T20:43:49;15.00;99.90
10306;DHT22;5198;52.382;9.020;2023-08-07T20:47:52;15.00;99.90
10306;DHT22;5198;52.382;9.020;2023-08-07T20:51:55;14.90;99.90
10306;DHT22;5198;52.382;9.020;2023-08-07T20:56:01;14.80;99.90
10306;DHT22;5198;52.382;9.020;2023-08-07T21:00:06;14.70;99.90
10306;DHT22;5198;52.382;9.020;2023-08-07T21:04:16;14.70;99.90
10306;DHT22;5198;52.382;9.020;2023-08-07T21:08:19;14.70;99.90
10306;DHT22;5198;52.382;9.020;2023-08-07T21:12:24;14.60;99.90
10306;DHT22;5198;52.382;9.020;2023-08-07T21:16:28;14.60;99.90
10306;DHT22;5198;52.382;9.020;2023-08-07T21:20:31;14.50;99.90
10306;DHT22;5198;52.382;9.020;2023-08-07T21:24:35;14.50;99.90
10306;DHT22;5198;52.382;9.020;2023-08-07T21:28:38;14.50;99.90
10306;DHT22;5198;52.382;9.020;2023-08-07T21:32:42;14.40;99.90
10306;DHT22;5198;52.382;9.020;2023-08-07T21:36:46;14.30;99.90
10306;DHT22;5198;52.382;9.020;2023-08-07T21:40:49;14.30;99.90
10306;DHT22;5198;52.382;9.020;2023-08-07T21:53:37;14.20;99.90
10306;DHT22;5198;52.382;9.020;2023-08-07T22:02:03;14.00;99.90
10306;DHT22;5198;52.382;9.020;2023-08-07T22:06:06;14.00;99.90
10306;DHT22;5198;52.382;9.020;2023-08-07T22:10:11;13.90;99.90
10306;DHT22;5198;52.382;9.020;2023-08-07T22:14:14;13.90;99.90
10306;DHT22;5198;52.382;9.020;2023-08-07T22:18:30;13.90;99.90
10306;DHT22;5198;52.382;9.020;2023-08-07T22:22:33;13.80;99.90
10306;DHT22;5198;52.382;9.020;2023-08-07T22:26:39;13.80;99.90
10306;DHT22;5198;52.382;9.020;2023-08-07T22:35:10;13.80;99.90
10306;DHT22;5198;52.382;9.020;2023-08-07T22:39:14;13.70;99.90
10306;DHT22;5198;52.382;9.020;2023-08-07T22:43:19;13.70;99.90
10306;DHT22;5198;52.382;9.020;2023-08-07T22:47:22;13.70;99.90
10306;DHT22;5198;52.382;9.020;2023-08-07T22:51:27;13.70;99.90
10306;DHT22;5198;52.382;9.020;2023-08-07T22:55:37;13.70;99.90
10306;DHT22;5198;52.382;9.020;2023-08-07T22:59:41;13.70;99.90
10306;DHT22;5198;52.382;9.020;2023-08-07T23:03:44;13.60;99.90
10306;DHT22;5198;52.382;9.020;2023-08-07T23:07:47;13.60;99.90
10306;DHT22;5198;52.382;9.020;2023-08-07T23:11:54;13.60;99.90
10306;DHT22;5198;52.382;9.020;2023-08-07T23:15:59;13.60;99.90
10306;DHT22;5198;52.382;9.020;2023-08-07T23:20:11;13.60;99.90
10306;DHT22;5198;52.382;9.020;2023-08-07T23:24:15;13.60;99.90
10306;DHT22;5198;52.382;9.020;2023-08-07T23:28:18;13.50;99.90
10306;DHT22;5198;52.382;9.020;2023-08-07T23:32:36;13.50;99.90
10306;DHT22;5198;52.382;9.020;2023-08-07T23:36:39;13.50;99.90
10306;DHT22;5198;52.382;9.020;2023-08-07T23:40:42;13.50;99.90
10306;DHT22;5198;52.382;9.020;2023-08-07T23:49:05;13.50;99.90
10306;DHT22;5198;52.382;9.020;2023-08-07T23:53:08;13.50;99.90
10306;DHT22;5198;52.382;9.020;2023-08-07T23:57:12;13.50;99.90
